Time;durP1;ratioP1;P1;durP2;ratioP2;P2;SDS_P1;SDS_P2;PMS_P1;PMS_P2;Temp;Humidity;BMP_temperature;BMP_pressure;BME280_temperature;BME280_humidity;BME280_pressure;Samples;Min_cycle;Max_cycle;Signal;HPM_P1;HPM_P2
2021/10/22 00:00:38;;;;;;;5.20;2.37;;;;;;;;;;6044809;23;20436;-85
2021/10/22 00:03:06;;;;;;;5.25;2.22;;;;;;;;;;6077454;23;20440;-86
2021/10/22 00:05:34;;;;;;;9.33;2.23;;;;;;;;;;6078229;23;20278;-86
2021/10/22 00:08:02;;;;;;;4.43;2.37;;;;;;;;;;6064701;23;20448;-85
2021/10/22 00:10:31;;;;;;;6.67;2.50;;;;;;;;;;6079318;23;21317;-86
2021/10/22 00:12:59;;;;;;;10.70;2.60;;;;;;;;;;6068478;23;20446;-86
2021/10/22 00:15:29;;;;;;;3.97;2.17;;;;;;;;;;6073425;23;20446;-85
2021/10/22 00:17:58;;;;;;;10.13;2.43;;;;;;;;;;6082940;23;20934;-86
2021/10/22 00:20:26;;;;;;;5.80;2.20;;;;;;;;;;6077080;23;20531;-85
2021/10/22 00:22:54;;;;;;;8.48;2.60;;;;;;;;;;6088575;23;20559;-85
2021/10/22 00:25:23;;;;;;;9.67;2.77;;;;;;;;;;6086859;23;20211;-85
2021/10/22 00:27:51;;;;;;;4.60;3.10;;;;;;;;;;6085617;23;20855;-85
2021/10/22 00:30:19;;;;;;;2.53;2.30;;;;;;;;;;6078070;23;20442;-85
2021/10/22 00:32:49;;;;;;;10.10;2.30;;;;;;;;;;6075313;23;20444;-85
2021/10/22 00:35:17;;;;;;;4.40;1.90;;;;;;;;;;6064458;23;20446;-85
2021/10/22 00:37:45;;;;;;;5.83;2.60;;;;;;;;;;6082684;23;20204;-85
2021/10/22 00:40:15;;;;;;;4.80;2.30;;;;;;;;;;6065866;23;20438;-85
2021/10/22 00:42:43;;;;;;;10.57;2.40;;;;;;;;;;6078646;23;20436;-85
2021/10/22 00:45:12;;;;;;;5.53;2.27;;;;;;;;;;6076681;23;20950;-85
2021/10/22 00:47:40;;;;;;;5.10;2.53;;;;;;;;;;6070260;23;20446;-85
2021/10/22 00:50:10;;;;;;;10.30;1.63;;;;;;;;;;6067673;23;20436;-85
2021/10/22 00:52:39;;;;;;;13.33;2.50;;;;;;;;;;6083579;23;20447;-85
2021/10/22 00:55:11;;;;;;;3.90;1.80;;;;;;;;;;6087842;23;20440;-85
2021/10/22 00:57:40;;;;;;;9.07;2.13;;;;;;;;;;6089084;23;20914;-85
2021/10/22 01:00:09;;;;;;;7.13;2.10;;;;;;;;;;6087782;23;20432;-85
2021/10/22 01:02:38;;;;;;;5.97;2.00;;;;;;;;;;6065631;23;20436;-85
2021/10/22 01:05:10;;;;;;;8.40;2.20;;;;;;;;;;6097830;23;20469;-85
2021/10/22 01:07:41;;;;;;;3.80;2.10;;;;;;;;;;6103992;23;20434;-85
2021/10/22 01:10:10;;;;;;;6.63;2.20;;;;;;;;;;6110605;23;20971;-85
2021/10/22 01:12:39;;;;;;;10.40;2.33;;;;;;;;;;6078002;23;20518;-85
2021/10/22 01:15:08;;;;;;;8.32;2.53;;;;;;;;;;6069312;23;20210;-85
2021/10/22 01:17:41;;;;;;;8.93;2.47;;;;;;;;;;6094678;23;20301;-85
2021/10/22 01:20:11;;;;;;;5.53;2.35;;;;;;;;;;6108522;23;20203;-86
2021/10/22 01:22:41;;;;;;;5.20;2.35;;;;;;;;;;6111599;23;20209;-86
2021/10/22 01:25:10;;;;;;;6.90;3.20;;;;;;;;;;6115231;23;20273;-86
2021/10/22 01:27:39;;;;;;;11.97;3.30;;;;;;;;;;6117309;23;20434;-86
2021/10/22 01:30:08;;;;;;;6.28;2.40;;;;;;;;;;6115862;23;20431;-86
2021/10/22 01:32:36;;;;;;;8.07;2.20;;;;;;;;;;6109630;23;20209;-86
2021/10/22 01:35:05;;;;;;;5.10;2.20;;;;;;;;;;6101140;23;20208;-86
2021/10/22 01:37:33;;;;;;;6.72;2.35;;;;;;;;;;6084943;23;20200;-85
2021/10/22 01:40:03;;;;;;;4.70;2.30;;;;;;;;;;6109187;23;20222;-86
2021/10/22 01:42:32;;;;;;;7.70;1.95;;;;;;;;;;6107215;23;20211;-86
2021/10/22 01:45:00;;;;;;;9.07;3.00;;;;;;;;;;6080948;23;20213;-85
2021/10/22 01:47:28;;;;;;;17.63;2.33;;;;;;;;;;6070638;23;20435;-86
2021/10/22 01:49:56;;;;;;;7.80;2.20;;;;;;;;;;6055610;23;20261;-86
2021/10/22 01:52:25;;;;;;;6.22;1.92;;;;;;;;;;6104904;23;20437;-86
2021/10/22 01:54:53;;;;;;;6.68;1.77;;;;;;;;;;6109272;23;20535;-86
2021/10/22 01:57:22;;;;;;;12.82;2.15;;;;;;;;;;6064293;23;20214;-86
2021/10/22 01:59:51;;;;;;;10.68;2.70;;;;;;;;;;6074411;23;20215;-85
2021/10/22 02:02:19;;;;;;;5.82;2.35;;;;;;;;;;6082841;23;20214;-86
2021/10/22 02:04:50;;;;;;;10.87;2.30;;;;;;;;;;6075942;23;20218;-86
2021/10/22 02:07:18;;;;;;;9.27;2.97;;;;;;;;;;6070797;23;20438;-86
2021/10/22 02:09:46;;;;;;;7.45;2.45;;;;;;;;;;6086276;23;20615;-86
2021/10/22 02:12:15;;;;;;;4.20;2.05;;;;;;;;;;6089444;23;20652;-86
2021/10/22 02:14:46;;;;;;;5.43;2.17;;;;;;;;;;6080637;23;20207;-86
2021/10/22 02:17:14;;;;;;;5.55;2.03;;;;;;;;;;6075323;23;20230;-86
2021/10/22 02:19:42;;;;;;;4.25;2.00;;;;;;;;;;6071895;23;20277;-86
2021/10/22 02:22:10;;;;;;;12.60;3.08;;;;;;;;;;6085212;23;20203;-86
2021/10/22 02:24:39;;;;;;;12.85;2.50;;;;;;;;;;6073152;23;20542;-86
2021/10/22 02:27:08;;;;;;;4.80;1.98;;;;;;;;;;6058583;23;20202;-86
2021/10/22 02:29:37;;;;;;;3.90;2.40;;;;;;;;;;6054585;23;20208;-86
2021/10/22 02:32:07;;;;;;;8.23;1.90;;;;;;;;;;6081725;23;20544;-86
2021/10/22 02:34:35;;;;;;;8.52;3.42;;;;;;;;;;6077517;23;20747;-86
2021/10/22 02:37:03;;;;;;;5.85;3.22;;;;;;;;;;6086075;23;20217;-86
2021/10/22 02:39:33;;;;;;;6.95;2.03;;;;;;;;;;6088275;23;20251;-86
2021/10/22 02:42:02;;;;;;;6.38;2.63;;;;;;;;;;6082040;23;20207;-86
2021/10/22 02:44:30;;;;;;;8.45;2.33;;;;;;;;;;6088613;23;20211;-86
2021/10/22 02:46:58;;;;;;;7.43;2.50;;;;;;;;;;6069588;23;20794;-86
2021/10/22 02:49:28;;;;;;;9.50;2.50;;;;;;;;;;6050303;23;20746;-86
2021/10/22 02:51:56;;;;;;;6.70;2.67;;;;;;;;;;6048737;23;20212;-85
2021/10/22 02:54:24;;;;;;;10.20;2.58;;;;;;;;;;6056462;23;20214;-85
2021/10/22 02:56:53;;;;;;;6.25;2.63;;;;;;;;;;6043385;23;20238;-85
2021/10/22 02:59:21;;;;;;;10.82;3.78;;;;;;;;;;6009292;23;20206;-86
2021/10/22 03:01:50;;;;;;;4.28;2.13;;;;;;;;;;6034449;23;20215;-86
2021/10/22 03:04:18;;;;;;;6.68;2.60;;;;;;;;;;6045928;23;20590;-86
2021/10/22 03:06:48;;;;;;;10.35;3.63;;;;;;;;;;6098826;23;20210;-86
2021/10/22 03:09:16;;;;;;;10.18;2.55;;;;;;;;;;6115780;23;20209;-86
2021/10/22 03:11:44;;;;;;;15.45;2.90;;;;;;;;;;6115453;23;20271;-85
2021/10/22 03:14:12;;;;;;;2.65;2.15;;;;;;;;;;6119127;23;20207;-86
2021/10/22 03:16:42;;;;;;;4.70;2.28;;;;;;;;;;6111604;23;20207;-87
2021/10/22 03:19:11;;;;;;;6.60;2.65;;;;;;;;;;6110311;23;20570;-85
2021/10/22 03:21:40;;;;;;;8.25;2.08;;;;;;;;;;6080049;23;20207;-86
2021/10/22 03:24:09;;;;;;;6.57;2.13;;;;;;;;;;6107273;23;20790;-85
2021/10/22 03:26:38;;;;;;;8.95;2.50;;;;;;;;;;6095906;23;20204;-86
2021/10/22 03:29:07;;;;;;;10.30;2.50;;;;;;;;;;6060382;23;20208;-86
2021/10/22 03:31:36;;;;;;;6.63;2.23;;;;;;;;;;6074366;23;20206;-86
2021/10/22 03:34:04;;;;;;;5.60;2.83;;;;;;;;;;6074466;23;21061;-86
2021/10/22 03:36:35;;;;;;;10.10;2.97;;;;;;;;;;6070321;23;20212;-86
2021/10/22 03:39:03;;;;;;;12.10;2.90;;;;;;;;;;6072730;23;20223;-86
2021/10/22 03:41:33;;;;;;;9.93;3.55;;;;;;;;;;6082321;23;20215;-86
2021/10/22 03:44:03;;;;;;;13.93;2.75;;;;;;;;;;6071266;23;20212;-86
2021/10/22 03:46:31;;;;;;;5.90;2.78;;;;;;;;;;6068347;23;20241;-85
2021/10/22 03:49:00;;;;;;;11.70;2.97;;;;;;;;;;6052519;23;20226;-86
2021/10/22 03:51:28;;;;;;;9.52;2.53;;;;;;;;;;6081716;23;20206;-86
2021/10/22 03:53:56;;;;;;;8.23;2.33;;;;;;;;;;6085385;23;20214;-85
2021/10/22 03:56:27;;;;;;;8.20;3.33;;;;;;;;;;6085969;23;20679;-86
2021/10/22 03:58:57;;;;;;;7.70;2.95;;;;;;;;;;6074230;23;20529;-85
2021/10/22 04:01:25;;;;;;;6.55;2.03;;;;;;;;;;6040254;23;20207;-86
2021/10/22 04:03:54;;;;;;;5.55;3.13;;;;;;;;;;6079141;23;20229;-86
2021/10/22 04:06:22;;;;;;;7.97;2.50;;;;;;;;;;6106224;23;20212;-85
2021/10/22 04:08:50;;;;;;;9.73;3.28;;;;;;;;;;6107040;23;20261;-86
2021/10/22 04:11:18;;;;;;;21.85;3.38;;;;;;;;;;6078055;23;20216;-85
2021/10/22 04:13:47;;;;;;;5.07;2.63;;;;;;;;;;6058343;23;20672;-86
2021/10/22 04:16:16;;;;;;;14.65;3.03;;;;;;;;;;6046619;23;20211;-86
2021/10/22 04:18:45;;;;;;;6.53;2.28;;;;;;;;;;6078102;23;20211;-86
2021/10/22 04:21:13;;;;;;;8.33;2.70;;;;;;;;;;6069803;23;20213;-86
2021/10/22 04:23:41;;;;;;;5.35;2.70;;;;;;;;;;6085250;23;20449;-86
2021/10/22 04:26:09;;;;;;;8.57;2.83;;;;;;;;;;6089501;23;20214;-86
2021/10/22 04:28:38;;;;;;;4.80;2.58;;;;;;;;;;6086801;23;20255;-85
2021/10/22 04:31:06;;;;;;;4.00;2.20;;;;;;;;;;6064979;23;20211;-86
2021/10/22 04:33:39;;;;;;;9.18;3.60;;;;;;;;;;6059517;23;20203;-86
2021/10/22 04:36:09;;;;;;;7.97;2.75;;;;;;;;;;6065782;23;20212;-86
2021/10/22 04:41:23;;;;;;;4.05;2.47;;;;;;;;;;6107005;23;20205;-86
2021/10/22 04:43:51;;;;;;;8.52;2.65;;;;;;;;;;6056365;23;20225;-86
2021/10/22 04:46:20;;;;;;;5.55;2.33;;;;;;;;;;6096956;23;20206;-86
2021/10/22 04:48:50;;;;;;;6.88;1.75;;;;;;;;;;6085964;23;20225;-86
2021/10/22 04:51:18;;;;;;;9.65;3.50;;;;;;;;;;6104320;23;20205;-86
2021/10/22 04:53:49;;;;;;;6.28;2.45;;;;;;;;;;6116882;23;20211;-86
2021/10/22 04:56:17;;;;;;;5.57;2.90;;;;;;;;;;6113595;23;20211;-85
2021/10/22 04:58:47;;;;;;;8.40;3.08;;;;;;;;;;6116966;23;20446;-86
2021/10/22 05:01:15;;;;;;;21.67;3.08;;;;;;;;;;6115807;23;20281;-86
2021/10/22 05:03:44;;;;;;;13.80;3.05;;;;;;;;;;6098706;23;20269;-85
2021/10/22 05:06:13;;;;;;;10.23;3.42;;;;;;;;;;6102074;23;20213;-86
2021/10/22 05:08:42;;;;;;;4.15;2.83;;;;;;;;;;6116902;23;20659;-85
2021/10/22 05:11:10;;;;;;;7.10;3.10;;;;;;;;;;6117430;23;20209;-86
2021/10/22 05:13:38;;;;;;;6.22;3.30;;;;;;;;;;6077190;23;20225;-86
2021/10/22 05:16:14;;;;;;;11.88;5.50;;;;;;;;;;6102863;23;20211;-85
2021/10/22 05:18:45;;;;;;;12.38;3.13;;;;;;;;;;6102067;23;20207;-86
2021/10/22 05:21:14;;;;;;;7.78;2.95;;;;;;;;;;6102889;23;20207;-86
2021/10/22 05:23:43;;;;;;;6.25;3.55;;;;;;;;;;6072223;23;20217;-86
2021/10/22 05:26:11;;;;;;;7.80;3.55;;;;;;;;;;6103161;23;20550;-86
2021/10/22 05:28:39;;;;;;;7.22;3.70;;;;;;;;;;6089429;23;20525;-86
2021/10/22 05:31:08;;;;;;;9.00;4.20;;;;;;;;;;6089979;23;20211;-86
2021/10/22 05:33:36;;;;;;;8.00;3.20;;;;;;;;;;6096458;23;20292;-85
2021/10/22 05:36:07;;;;;;;11.65;3.67;;;;;;;;;;6080003;23;20210;-85
2021/10/22 05:38:36;;;;;;;6.95;2.95;;;;;;;;;;6106263;23;20206;-86
2021/10/22 05:41:05;;;;;;;17.20;4.00;;;;;;;;;;6116012;23;20240;-85
2021/10/22 05:43:34;;;;;;;10.85;4.15;;;;;;;;;;6107627;23;20222;-85
2021/10/22 05:46:02;;;;;;;14.50;4.75;;;;;;;;;;6110076;23;20216;-85
2021/10/22 05:48:30;;;;;;;7.85;4.70;;;;;;;;;;6090006;23;20835;-85
2021/10/22 05:51:00;;;;;;;10.82;3.58;;;;;;;;;;6085032;23;20226;-85
2021/10/22 05:53:28;;;;;;;13.27;4.05;;;;;;;;;;6103707;23;20535;-85
2021/10/22 05:55:58;;;;;;;7.55;4.28;;;;;;;;;;6098019;23;20201;-84
2021/10/22 05:58:26;;;;;;;23.67;5.43;;;;;;;;;;6111301;23;20223;-85
2021/10/22 06:00:55;;;;;;;8.68;4.05;;;;;;;;;;6067914;23;20680;-85
2021/10/22 06:03:23;;;;;;;10.98;3.75;;;;;;;;;;6074768;23;20298;-85
2021/10/22 06:05:53;;;;;;;5.60;3.83;;;;;;;;;;6094443;23;20202;-85
2021/10/22 06:08:22;;;;;;;10.80;4.72;;;;;;;;;;6076247;23;20607;-85
2021/10/22 06:10:50;;;;;;;11.07;4.05;;;;;;;;;;6086950;23;20246;-85
2021/10/22 06:13:20;;;;;;;5.80;4.03;;;;;;;;;;6087082;23;20814;-85
2021/10/22 06:15:48;;;;;;;7.32;4.35;;;;;;;;;;6073345;23;20211;-85
2021/10/22 06:18:19;;;;;;;7.90;4.20;;;;;;;;;;6039181;23;20626;-85
2021/10/22 06:20:50;;;;;;;10.15;3.90;;;;;;;;;;6076359;23;20233;-85
2021/10/22 06:26:05;;;;;;;11.35;4.63;;;;;;;;;;6078647;23;20215;-86
2021/10/22 06:28:34;;;;;;;9.55;4.25;;;;;;;;;;6071462;23;20278;-86
2021/10/22 06:31:03;;;;;;;9.25;4.15;;;;;;;;;;6072376;23;20203;-85
2021/10/22 06:33:31;;;;;;;22.25;5.85;;;;;;;;;;6071366;23;20949;-85
2021/10/22 06:36:00;;;;;;;6.45;3.67;;;;;;;;;;6060868;23;20294;-85
2021/10/22 06:38:28;;;;;;;8.63;4.20;;;;;;;;;;6085287;23;20203;-85
2021/10/22 06:40:57;;;;;;;7.07;4.28;;;;;;;;;;6115434;23;20572;-85
2021/10/22 06:43:26;;;;;;;9.15;3.78;;;;;;;;;;6115012;23;20549;-86
2021/10/22 06:45:55;;;;;;;10.40;4.55;;;;;;;;;;6115595;23;20213;-86
2021/10/22 06:48:24;;;;;;;15.15;4.60;;;;;;;;;;6097855;23;20202;-85
2021/10/22 06:50:53;;;;;;;6.90;4.13;;;;;;;;;;6096666;23;20202;-86
2021/10/22 06:53:22;;;;;;;11.32;4.40;;;;;;;;;;6118571;23;20218;-86
2021/10/22 06:55:50;;;;;;;8.13;4.20;;;;;;;;;;6119219;23;20220;-86
2021/10/22 06:58:19;;;;;;;9.38;4.00;;;;;;;;;;6088378;23;20216;-86
2021/10/22 07:00:49;;;;;;;9.10;4.30;;;;;;;;;;6059693;23;20211;-86
2021/10/22 07:03:24;;;;;;;15.38;5.47;;;;;;;;;;6067393;23;20211;-85
2021/10/22 07:08:47;;;;;;;7.57;4.30;;;;;;;;;;6096954;23;20204;-86
2021/10/22 07:11:16;;;;;;;9.13;4.65;;;;;;;;;;6102657;23;20206;-85
2021/10/22 07:13:50;;;;;;;15.55;4.82;;;;;;;;;;6048293;23;20204;-85
2021/10/22 07:16:19;;;;;;;9.73;5.65;;;;;;;;;;6072938;23;20751;-86
2021/10/22 07:18:50;;;;;;;8.18;4.30;;;;;;;;;;6101659;23;20211;-85
2021/10/22 07:21:19;;;;;;;6.60;4.20;;;;;;;;;;6066408;23;20205;-86
2021/10/22 07:23:48;;;;;;;9.88;4.95;;;;;;;;;;6117903;23;20529;-85
2021/10/22 07:26:18;;;;;;;15.57;4.90;;;;;;;;;;6118994;23;20209;-86
2021/10/22 07:28:46;;;;;;;8.88;5.10;;;;;;;;;;6100577;23;20209;-86
2021/10/22 07:31:15;;;;;;;10.50;4.80;;;;;;;;;;6083616;23;20260;-86
2021/10/22 07:33:43;;;;;;;13.48;5.05;;;;;;;;;;6071461;23;20207;-86
2021/10/22 07:36:14;;;;;;;5.47;4.20;;;;;;;;;;6103225;23;20230;-85
2021/10/22 07:38:44;;;;;;;10.00;4.70;;;;;;;;;;6071985;23;20218;-85
2021/10/22 07:41:13;;;;;;;15.37;5.47;;;;;;;;;;6062095;23;20552;-84
2021/10/22 07:43:41;;;;;;;8.00;4.37;;;;;;;;;;6074279;23;20792;-85
2021/10/22 07:46:09;;;;;;;11.15;4.68;;;;;;;;;;6070886;23;20486;-85
2021/10/22 07:48:38;;;;;;;9.38;4.45;;;;;;;;;;6048591;23;20522;-85
2021/10/22 07:51:07;;;;;;;6.35;3.75;;;;;;;;;;6080438;23;20208;-85
2021/10/22 07:53:36;;;;;;;11.07;4.30;;;;;;;;;;6088095;23;20203;-84
2021/10/22 07:56:05;;;;;;;5.43;3.50;;;;;;;;;;6094097;23;20217;-84
2021/10/22 07:58:33;;;;;;;8.93;4.07;;;;;;;;;;6086806;23;20234;-86
2021/10/22 08:01:02;;;;;;;7.70;3.67;;;;;;;;;;6052000;23;20211;-86
2021/10/22 08:03:32;;;;;;;15.93;3.37;;;;;;;;;;6061355;23;20214;-86
2021/10/22 08:06:01;;;;;;;13.70;4.07;;;;;;;;;;6053722;23;20436;-86
2021/10/22 08:08:30;;;;;;;4.00;3.57;;;;;;;;;;6074440;23;20744;-86
2021/10/22 08:11:01;;;;;;;15.82;3.70;;;;;;;;;;6075381;23;20440;-86
2021/10/22 08:13:29;;;;;;;7.70;3.40;;;;;;;;;;6068010;23;20199;-85
2021/10/22 08:15:58;;;;;;;9.30;3.77;;;;;;;;;;6030607;23;20631;-86
2021/10/22 08:18:27;;;;;;;9.00;3.47;;;;;;;;;;6060758;23;20507;-86
2021/10/22 08:20:58;;;;;;;8.60;3.37;;;;;;;;;;6079916;23;20210;-86
2021/10/22 08:23:27;;;;;;;9.07;4.03;;;;;;;;;;6089322;23;20446;-86
2021/10/22 08:25:56;;;;;;;7.20;3.33;;;;;;;;;;6086238;23;22289;-86
2021/10/22 08:28:26;;;;;;;8.17;4.17;;;;;;;;;;6084872;23;20824;-86
2021/10/22 08:30:57;;;;;;;8.33;4.80;;;;;;;;;;6076135;23;20444;-86
2021/10/22 08:33:26;;;;;;;5.73;3.20;;;;;;;;;;6078142;23;20977;-86
2021/10/22 08:35:57;;;;;;;6.60;3.30;;;;;;;;;;6059923;23;20511;-88
2021/10/22 08:38:25;;;;;;;12.90;3.80;;;;;;;;;;6089630;23;20933;-85
2021/10/22 08:40:55;;;;;;;14.40;3.40;;;;;;;;;;6081731;23;20443;-86
2021/10/22 08:43:26;;;;;;;8.20;3.50;;;;;;;;;;6061275;23;20439;-87
2021/10/22 08:45:55;;;;;;;7.90;4.23;;;;;;;;;;6044596;23;20811;-87
2021/10/22 08:48:24;;;;;;;11.93;4.20;;;;;;;;;;6052637;23;20440;-86
2021/10/22 08:50:52;;;;;;;14.97;3.83;;;;;;;;;;6072393;23;20937;-87
2021/10/22 08:53:20;;;;;;;5.93;2.97;;;;;;;;;;6064167;23;20458;-89
2021/10/22 08:55:49;;;;;;;6.05;4.07;;;;;;;;;;6044735;23;20227;-87
2021/10/22 08:58:18;;;;;;;11.10;3.27;;;;;;;;;;6059100;23;20214;-87
2021/10/22 09:00:48;;;;;;;6.73;3.73;;;;;;;;;;6060946;23;20466;-87
2021/10/22 09:03:18;;;;;;;14.93;5.00;;;;;;;;;;6070153;23;20467;-87
2021/10/22 09:05:59;;;;;;;5.90;3.70;;;;;;;;;;6060070;23;20467;-86
2021/10/22 09:08:31;;;;;;;10.00;3.97;;;;;;;;;;6070993;23;20527;-86
2021/10/22 09:11:01;;;;;;;10.43;3.83;;;;;;;;;;6088671;23;20450;-86
2021/10/22 09:13:29;;;;;;;6.80;3.90;;;;;;;;;;6056943;23;20431;-89
2021/10/22 09:16:00;;;;;;;8.07;4.13;;;;;;;;;;6060739;23;20498;-86
2021/10/22 09:18:30;;;;;;;12.90;3.13;;;;;;;;;;6048743;23;20502;-86
2021/10/22 09:20:59;;;;;;;19.43;4.40;;;;;;;;;;6044765;23;20910;-85
2021/10/22 09:23:28;;;;;;;8.47;3.40;;;;;;;;;;6066978;23;20446;-85
2021/10/22 09:26:15;;;;;;;10.40;3.67;;;;;;;;;;6058342;23;20516;-86
2021/10/22 09:28:43;;;;;;;7.33;3.70;;;;;;;;;;6060116;23;20435;-85
2021/10/22 09:31:13;;;;;;;7.60;3.17;;;;;;;;;;6061617;23;20928;-85
2021/10/22 09:33:50;;;;;;;12.50;2.90;;;;;;;;;;6063347;23;21235;-85
2021/10/22 09:36:31;;;;;;;12.30;3.87;;;;;;;;;;6053336;23;20789;-85
2021/10/22 09:39:13;;;;;;;7.00;3.30;;;;;;;;;;6061702;23;20463;-85
2021/10/22 09:41:48;;;;;;;6.10;3.37;;;;;;;;;;6087399;23;20435;-85
2021/10/22 09:44:20;;;;;;;7.37;3.50;;;;;;;;;;6057305;23;20510;-85
2021/10/22 09:46:50;;;;;;;6.67;2.67;;;;;;;;;;6027534;23;20439;-85
2021/10/22 09:49:26;;;;;;;7.03;2.67;;;;;;;;;;6054545;23;20437;-85
2021/10/22 09:51:55;;;;;;;7.67;3.13;;;;;;;;;;6061121;23;20435;-85
2021/10/22 09:54:29;;;;;;;6.73;2.77;;;;;;;;;;6079138;23;20455;-85
2021/10/22 09:56:58;;;;;;;10.50;3.10;;;;;;;;;;6062019;23;20442;-84
2021/10/22 09:59:27;;;;;;;12.20;3.80;;;;;;;;;;6057859;23;20917;-84
2021/10/22 10:01:57;;;;;;;14.37;3.40;;;;;;;;;;6029409;23;20467;-85
2021/10/22 10:04:26;;;;;;;9.07;2.67;;;;;;;;;;6059248;23;20444;-85
2021/10/22 10:07:02;;;;;;;3.93;2.40;;;;;;;;;;6062294;23;20944;-84
2021/10/22 10:09:30;;;;;;;6.90;2.40;;;;;;;;;;6096418;23;20442;-85
2021/10/22 10:12:01;;;;;;;11.10;3.00;;;;;;;;;;6090813;23;20444;-85
2021/10/22 10:14:30;;;;;;;3.63;2.03;;;;;;;;;;6088366;23;20510;-84
2021/10/22 10:17:00;;;;;;;3.47;2.10;;;;;;;;;;6063322;23;20435;-84
2021/10/22 10:19:33;;;;;;;5.83;2.80;;;;;;;;;;6058784;23;20441;-85
2021/10/22 10:22:03;;;;;;;2.63;2.30;;;;;;;;;;6046000;23;20476;-85
2021/10/22 10:24:33;;;;;;;4.60;2.30;;;;;;;;;;6087145;23;20451;-85
2021/10/22 10:27:03;;;;;;;4.73;2.30;;;;;;;;;;6058327;23;20447;-84
2021/10/22 10:29:32;;;;;;;4.43;2.00;;;;;;;;;;6062646;23;20439;-85
2021/10/22 10:32:02;;;;;;;6.67;2.43;;;;;;;;;;6058185;23;20430;-86
2021/10/22 10:34:44;;;;;;;9.33;2.00;;;;;;;;;;6046351;23;20446;-85
2021/10/22 10:37:26;;;;;;;2.97;2.60;;;;;;;;;;6068528;23;20589;-86
2021/10/22 10:40:01;;;;;;;4.80;2.03;;;;;;;;;;6087346;23;20440;-85
2021/10/22 10:42:33;;;;;;;5.97;2.50;;;;;;;;;;6087411;23;20936;-86
2021/10/22 10:45:02;;;;;;;5.00;1.60;;;;;;;;;;6085565;23;20460;-86
2021/10/22 10:47:45;;;;;;;2.33;1.63;;;;;;;;;;6071333;23;20444;-86
2021/10/22 10:50:15;;;;;;;5.23;2.40;;;;;;;;;;6042413;23;21093;-87
2021/10/22 10:52:44;;;;;;;7.70;2.27;;;;;;;;;;6071228;23;20445;-87
2021/10/22 10:55:25;;;;;;;5.27;2.13;;;;;;;;;;6086075;23;20445;-85
2021/10/22 10:57:54;;;;;;;6.67;2.80;;;;;;;;;;6070876;23;20534;-86
2021/10/22 11:00:23;;;;;;;8.60;2.20;;;;;;;;;;6057275;23;20443;-86
2021/10/22 11:03:10;;;;;;;4.80;1.83;;;;;;;;;;6042142;23;20442;-87
2021/10/22 11:06:03;;;;;;;4.87;1.60;;;;;;;;;;6057163;23;20447;-87
2021/10/22 11:08:41;;;;;;;5.30;1.60;;;;;;;;;;6055065;23;20451;-86
2021/10/22 11:11:11;;;;;;;5.73;1.83;;;;;;;;;;6045745;23;20439;-87
2021/10/22 11:13:45;;;;;;;8.17;1.70;;;;;;;;;;6067524;23;20458;-86
2021/10/22 11:16:27;;;;;;;2.60;1.10;;;;;;;;;;6060012;23;20447;-86
2021/10/22 11:18:59;;;;;;;3.47;1.87;;;;;;;;;;6047563;23;20860;-86
2021/10/22 11:21:28;;;;;;;6.33;1.30;;;;;;;;;;6062991;23;20958;-89
2021/10/22 11:23:57;;;;;;;3.57;1.50;;;;;;;;;;6081558;23;20526;-87
2021/10/22 11:26:25;;;;;;;3.33;1.30;;;;;;;;;;6085453;23;20440;-87
2021/10/22 11:28:54;;;;;;;2.67;1.20;;;;;;;;;;6082206;23;20437;-87
2021/10/22 11:31:39;;;;;;;3.43;1.50;;;;;;;;;;6062164;23;20489;-87
2021/10/22 11:34:10;;;;;;;2.03;1.00;;;;;;;;;;6073394;23;20446;-86
2021/10/22 11:36:39;;;;;;;2.90;1.30;;;;;;;;;;6063478;23;20445;-86
2021/10/22 11:39:17;;;;;;;2.10;1.13;;;;;;;;;;6071571;23;20997;-86
2021/10/22 11:41:45;;;;;;;1.57;1.00;;;;;;;;;;6047562;23;20449;-87
2021/10/22 11:44:14;;;;;;;1.80;1.30;;;;;;;;;;6060559;23;20997;-86
2021/10/22 11:46:43;;;;;;;5.50;1.20;;;;;;;;;;6059986;23;20517;-87
2021/10/22 11:49:23;;;;;;;3.47;1.07;;;;;;;;;;6044198;23;20439;-87
2021/10/22 11:51:53;;;;;;;2.23;1.10;;;;;;;;;;6058610;23;20462;-85
2021/10/22 11:54:24;;;;;;;3.70;1.20;;;;;;;;;;6084024;23;20442;-87
2021/10/22 11:56:53;;;;;;;3.60;1.13;;;;;;;;;;6089596;23;20437;-87
2021/10/22 11:59:22;;;;;;;2.00;0.70;;;;;;;;;;6075780;23;20831;-88
2021/10/22 12:01:50;;;;;;;2.20;1.10;;;;;;;;;;6058820;23;20443;-87
2021/10/22 12:04:26;;;;;;;1.80;1.10;;;;;;;;;;6075121;23;20476;-87
2021/10/22 12:07:02;;;;;;;3.57;0.90;;;;;;;;;;6059210;23;20953;-89
2021/10/22 12:09:30;;;;;;;2.73;1.10;;;;;;;;;;6093172;23;20441;-86
2021/10/22 12:12:06;;;;;;;1.20;1.03;;;;;;;;;;6043253;23;20440;-87
2021/10/22 12:14:35;;;;;;;1.47;1.00;;;;;;;;;;6044209;23;20439;-87
2021/10/22 12:17:04;;;;;;;3.00;1.10;;;;;;;;;;6060197;23;20440;-87
2021/10/22 12:19:34;;;;;;;4.00;1.00;;;;;;;;;;6047292;23;20442;-87
2021/10/22 12:22:02;;;;;;;3.80;1.30;;;;;;;;;;6075097;23;20527;-86
2021/10/22 12:24:55;;;;;;;4.73;1.33;;;;;;;;;;6090949;23;20453;-87
2021/10/22 12:27:25;;;;;;;1.27;1.07;;;;;;;;;;6060874;23;20442;-87
2021/10/22 12:30:04;;;;;;;4.40;1.40;;;;;;;;;;6088656;23;20445;-87
2021/10/22 12:32:34;;;;;;;2.67;1.00;;;;;;;;;;6083338;23;20517;-86
2021/10/22 12:35:07;;;;;;;2.60;1.23;;;;;;;;;;6078727;23;20454;-86
2021/10/22 12:37:37;;;;;;;2.50;1.20;;;;;;;;;;6086493;23;20443;-86
2021/10/22 12:40:22;;;;;;;3.27;1.10;;;;;;;;;;6090292;23;20717;-86
2021/10/22 12:43:07;;;;;;;1.47;0.97;;;;;;;;;;6069767;23;20571;-87
2021/10/22 12:45:41;;;;;;;5.53;1.63;;;;;;;;;;6058123;23;20503;-87
2021/10/22 12:48:10;;;;;;;3.83;1.30;;;;;;;;;;6061619;23;20956;-85
2021/10/22 12:50:40;;;;;;;2.80;1.00;;;;;;;;;;6062614;23;20438;-86
2021/10/22 12:53:12;;;;;;;3.33;1.13;;;;;;;;;;6045023;23;20519;-86
2021/10/22 12:55:40;;;;;;;1.57;1.00;;;;;;;;;;6062609;23;20446;-87
2021/10/22 12:58:12;;;;;;;4.80;1.00;;;;;;;;;;6061313;23;20515;-86
2021/10/22 13:00:41;;;;;;;2.40;1.40;;;;;;;;;;6061027;23;20442;-87
2021/10/22 13:03:10;;;;;;;5.00;1.10;;;;;;;;;;6036441;23;20453;-86
2021/10/22 13:05:41;;;;;;;1.83;1.10;;;;;;;;;;6060827;23;20443;-83
2021/10/22 13:11:07;;;;;;;3.33;1.00;;;;;;;;;;6068274;23;20518;-86
2021/10/22 13:13:53;;;;;;;4.10;1.00;;;;;;;;;;6071276;23;20446;-87
2021/10/22 13:22:00;;;;;;;4.53;1.90;;;;;;;;;;6065468;23;20442;-87
2021/10/22 13:24:29;;;;;;;2.03;1.03;;;;;;;;;;6066939;23;20510;-86
2021/10/22 13:26:57;;;;;;;2.73;1.00;;;;;;;;;;6069073;23;20435;-87
2021/10/22 13:29:25;;;;;;;6.57;1.67;;;;;;;;;;6054239;23;20442;-89
2021/10/22 13:31:54;;;;;;;5.37;1.63;;;;;;;;;;6051337;23;20446;-87
2021/10/22 13:34:22;;;;;;;1.40;1.30;;;;;;;;;;6077466;23;21098;-87
2021/10/22 13:36:50;;;;;;;3.73;1.43;;;;;;;;;;6071617;23;20441;-86
2021/10/22 13:39:20;;;;;;;2.70;1.20;;;;;;;;;;6085410;23;20441;-86
2021/10/22 13:41:50;;;;;;;2.07;1.30;;;;;;;;;;6087540;23;20444;-87
2021/10/22 13:44:18;;;;;;;4.97;1.20;;;;;;;;;;6090950;23;20442;-87
2021/10/22 13:46:49;;;;;;;3.20;1.37;;;;;;;;;;6061163;23;20790;-86
2021/10/22 13:49:17;;;;;;;2.27;1.20;;;;;;;;;;6081663;23;20446;-87
2021/10/22 13:51:45;;;;;;;1.50;1.03;;;;;;;;;;6062317;23;20442;-87
2021/10/22 13:54:14;;;;;;;2.30;1.27;;;;;;;;;;6091548;23;20443;-87
2021/10/22 13:56:43;;;;;;;3.80;1.77;;;;;;;;;;6080446;23;20438;-86
2021/10/22 13:59:12;;;;;;;1.80;1.60;;;;;;;;;;6052439;23;20445;-86
2021/10/22 14:01:40;;;;;;;5.30;1.33;;;;;;;;;;6078106;23;20449;-87
2021/10/22 14:04:08;;;;;;;10.73;1.80;;;;;;;;;;6069736;23;20498;-86
2021/10/22 14:06:36;;;;;;;4.80;1.50;;;;;;;;;;6067411;23;20451;-86
2021/10/22 14:09:05;;;;;;;7.40;1.37;;;;;;;;;;6090063;23;20443;-86
2021/10/22 14:11:39;;;;;;;3.03;1.87;;;;;;;;;;6088738;23;20442;-86
2021/10/22 14:14:19;;;;;;;4.53;1.60;;;;;;;;;;6088134;23;20495;-86
2021/10/22 14:17:00;;;;;;;5.90;2.00;;;;;;;;;;6083718;23;20509;-86
2021/10/22 14:19:38;;;;;;;2.23;1.37;;;;;;;;;;6071827;23;20441;-86
2021/10/22 14:30:31;;;;;;;3.00;1.33;;;;;;;;;;6098866;23;20582;-86
2021/10/22 14:32:59;;;;;;;3.10;1.40;;;;;;;;;;6060267;23;20512;-86
2021/10/22 14:35:27;;;;;;;5.33;1.63;;;;;;;;;;6069137;23;20452;-86
2021/10/22 14:37:56;;;;;;;2.03;1.50;;;;;;;;;;6055642;23;20517;-86
2021/10/22 14:40:24;;;;;;;2.97;1.60;;;;;;;;;;6075433;23;20776;-86
2021/10/22 14:42:52;;;;;;;1.80;1.47;;;;;;;;;;6079294;23;20515;-87
2021/10/22 14:45:24;;;;;;;2.23;1.00;;;;;;;;;;6056108;23;20814;-87
2021/10/22 14:47:58;;;;;;;7.57;1.17;;;;;;;;;;6083313;23;20442;-86
2021/10/22 14:50:28;;;;;;;1.67;1.07;;;;;;;;;;6065902;23;20502;-86
2021/10/22 14:55:47;;;;;;;3.20;1.30;;;;;;;;;;6100623;23;20432;-86
2021/10/22 14:58:18;;;;;;;5.60;1.20;;;;;;;;;;6081144;23;20440;-87
2021/10/22 15:00:47;;;;;;;4.97;1.27;;;;;;;;;;6060689;23;20447;-87
2021/10/22 15:03:17;;;;;;;5.47;1.70;;;;;;;;;;6054550;23;20456;-87
2021/10/22 15:05:46;;;;;;;2.97;1.43;;;;;;;;;;6081691;23;20454;-87
2021/10/22 15:08:15;;;;;;;3.37;1.50;;;;;;;;;;6073225;23;21052;-87
2021/10/22 15:10:44;;;;;;;5.43;1.17;;;;;;;;;;6071074;23;20811;-87
2021/10/22 15:13:13;;;;;;;1.97;1.17;;;;;;;;;;6068412;23;20512;-86
2021/10/22 15:15:41;;;;;;;1.63;0.90;;;;;;;;;;6077177;23;20448;-86
2021/10/22 15:18:10;;;;;;;2.50;1.73;;;;;;;;;;6104150;23;20826;-87
2021/10/22 15:20:40;;;;;;;1.77;1.67;;;;;;;;;;6076733;23;20452;-87
2021/10/22 15:23:08;;;;;;;4.60;1.40;;;;;;;;;;6105460;23;20434;-86
2021/10/22 15:25:37;;;;;;;2.97;2.00;;;;;;;;;;6120270;23;20439;-87